Погода Горютинона неделю

Тверская область, Россия

20 - 26 мая
  • 20мая
    Сегодня
    +9°
    +25°
    Небольшая облачность
    ВремяПогодаТемператураВлажностьДавлениеВетер, м/сВероятность осадков
    00:00Ясно и безоблачно+12°C65 %749 мм0.6 м/с2 %
    03:00Ясно и безоблачно+9°C73 %749 мм0.9 м/с2 %
    06:00Практически безоблачно+12°C70 %749 мм0.6 м/с2 %
    09:00Небольшая облачность+19°C59 %749 мм1.6 м/с2 %
    12:00Небольшая облачность+24°C39 %749 мм1.8 м/с15 %
    15:00Небольшая облачность+24°C40 %749 мм2.0 м/с12 %
    18:00Небольшая облачность+23°C45 %749 мм0.8 м/с17 %
    21:00Небольшая облачность+17°C77 %750 мм0.2 м/с2 %
  • 21мая
    Вторник
    +8°
    +23°
    Практически безоблачно
    ВремяПогодаТемператураВлажностьДавлениеВетер, м/сВероятность осадков
    00:00Ясно и безоблачно+13°C89 %750 мм0.0 м/с1 %
    03:00Ясно и безоблачно+11°C94 %751 мм0.0 м/с1 %
    06:00Небольшая облачность+12°C89 %752 мм0.0 м/с4 %
    09:00Ясно и безоблачно+18°C74 %752 мм0.0 м/с7 %
    12:00Практически безоблачно+21°C53 %752 мм0.5 м/с7 %
    15:00Практически безоблачно+22°C44 %752 мм0.8 м/с18 %
    18:00Ясно и безоблачно+22°C41 %752 мм0.1 м/с10 %
    21:00Ясно и безоблачно+16°C58 %753 мм0.3 м/с2 %
  • 22мая
    Среда
    +6°
    +21°
    Ясно и безоблачно
    ВремяПогодаТемператураВлажностьДавлениеВетер, м/сВероятность осадков
    00:00Ясно и безоблачно+11°C59 %753 мм0.0 м/с2 %
    03:00Ясно и безоблачно+8°C75 %754 мм0.0 м/с2 %
    06:00Ясно и безоблачно+9°C65 %755 мм0.2 м/с2 %
    09:00Ясно и безоблачно+16°C45 %756 мм1.0 м/с2 %
    12:00Ясно и безоблачно+20°C37 %756 мм1.1 м/с2 %
    15:00Ясно и безоблачно+21°C36 %755 мм0.9 м/с2 %
    18:00Ясно и безоблачно+21°C38 %755 мм1.3 м/с2 %
    21:00Ясно и безоблачно+15°C51 %756 мм1.6 м/с2 %
  • 23мая
    Четверг
    +4°
    +18°
    Облачно с прояснениями
    ВремяПогодаТемператураВлажностьДавлениеВетер, м/сВероятность осадков
    00:00Ясно и безоблачно+11°C61 %756 мм0.8 м/с2 %
    03:00Ясно и безоблачно+8°C82 %757 мм0.4 м/с2 %
    06:00Ясно и безоблачно+9°C78 %758 мм0.3 м/с2 %
    09:00Ясно и безоблачно+17°C50 %758 мм1.2 м/с2 %
    12:00Облачно с прояснениями+20°C38 %759 мм0.9 м/с2 %
    15:00Облачно с прояснениями+19°C37 %759 мм0.4 м/с2 %
    18:00Небольшая облачность+20°C38 %758 мм0.3 м/с2 %
    21:00Небольшая облачность+14°C64 %758 мм0.1 м/с2 %
Мы используем cookies
Соглашаюсь